Updated10/21/2018 10:1010 
 

Nearby Airport METAR Reports

 

KVSF - Springfield, Vermont, USA
Distance from station: WSW 8mi, 12km
Updated: 9:54pm
Overcast
Overcast
 Wind from varies
Wind: varies 3 mph , 6 km/h
Temperature: 36°F , 2°C
Dew Point: 18°F , -8°C
Humidity: 48%
Barometer: 30.05 inHg , 1017.6 hPa
Clouds: Overcast
Visibility: 10 miles , 16 km
Cloud details: Overcast 5000 ft
2018/10/22 01:54 KVSF 220154Z AUTO VRB03KT 10SM OVC050 02/M08 A3005 RMK AO2 SNE44 SLP182 P0000 T00171078
KLEB - Lebanon, New Hampshire, USA
Distance from station: N 18mi, 29km
Updated: 9:53pm
Overcast
Overcast
 Wind from WNW
Wind: WNW 9 mph , 15 km/h
Temperature: 37°F , 3°C
Wind Chill: 30°F , -1°C
Dew Point: 16°F , -9°C
Humidity: 41%
Barometer: 30.03 inHg , 1016.9 hPa
Clouds: Overcast
Visibility: 10 miles , 16 km
Cloud details: Overcast 5000 ft
2018/10/22 01:53 KLEB 220153Z 30008KT 10SM OVC050 03/M09 A3003 RMK AO2 SLP174 T00281089
KRUT - Rutland State, Vermont, USA
Distance from station: WNW 31mi, 50km
Updated: 9:56pm
Overcast
Overcast
 Wind from WNW
Wind: WNW 5 mph , 7 km/h
Temperature: 34°F , 1°C
Wind Chill: 29°F , -2°C
Dew Point: 19°F , -7°C
Humidity: 56%
Barometer: 30.05 inHg , 1017.6 hPa
Clouds: Overcast
Visibility: 10 miles , 16 km
Cloud details: Overcast 5000 ft
2018/10/22 01:56 KRUT 220156Z AUTO 30004KT 10SM OVC050 01/M07 A3005 RMK AO2 SLP199 T00061067 FZRANO $
 
KEEN - Keene/Dillant, New Hampshire, USA
Distance from station: S 34mi, 55km
Updated: 9:56pm
Overcast
Overcast
 Wind from calm
Wind: Calm
Temperature: 36°F , 2°C
Dew Point: 18°F , -8°C
Humidity: 48%
Barometer: 30.06 inHg , 1017.9 hPa
Clouds: Overcast
Visibility: 10 miles , 16 km
Cloud details: Overcast 5000 ft
2018/10/22 01:56 KEEN 220156Z AUTO 00000KT 10SM OVC050 02/M08 A3006 RMK AO2 SLP203 T00171078 FZRANO $
K1P1 - Plymouth, New Hampshire, USA
Distance from station: NE 42mi, 67km
Updated: 9:55pm
Mostly cloudy
Mostly cloudy
 Wind from WNW
Wind: WNW 5 mph , 7 km/h
Temperature: 34°F , 1°C
Wind Chill: 29°F , -2°C
Dew Point: 25°F , -4°C
Humidity: 70%
Barometer: 30.00 inHg , 1015.9 hPa
Clouds: Mostly cloudy
Visibility: 10 miles , 16 km
Cloud details: Partly cloudy 3700 ft
Partly cloudy 4400 ft
Mostly cloudy 5000 ft
2018/10/22 01:55 K1P1 220155Z AUTO 29004KT 10SM SCT037 SCT044 BKN050 01/M04 A3000 RMK AO2 T00141045
KAFN - Jaffrey, New Hampshire, USA
Distance from station: SSE 44mi, 70km
Updated: 9:52pm
Mostly cloudy
Mostly cloudy
 Wind from NNW
Wind: NNW 8 mph , 13 km/h, Gust: 16 mph , 26 km/h
Temperature: 34°F , 1°C
Wind Chill: 27°F , -3°C
Dew Point: 18°F , -8°C
Humidity: 51%
Barometer: 30.02 inHg , 1016.6 hPa
Clouds: Mostly cloudy
Visibility: 10 miles , 16 km
Cloud details: Mostly cloudy 4400 ft
2018/10/22 01:52 KAFN 220152Z AUTO 33007G14KT 280V010 10SM BKN044 01/M08 A3002 RMK AO2 SLP181 T00111078
 
KCON - Concord, New Hampshire, USA
Distance from station: ESE 45mi, 73km
Updated: 9:51pm
Overcast
Overcast
 Wind from WNW
Wind: WNW 10 mph , 17 km/h
Temperature: 36°F , 2°C
Wind Chill: 29°F , -2°C
Dew Point: 19°F , -7°C
Humidity: 52%
Barometer: 30.02 inHg , 1016.6 hPa
Clouds: Overcast
Visibility: 10 miles , 16 km
Cloud details: Overcast 5000 ft
2018/10/22 01:51 KCON 220151Z AUTO 30009KT 10SM OVC050 02/M07 A3002 RMK AO2 SLP171 T00221072
KLCI - Laconia Muni, New Hampshire, USA
Distance from station: ENE 49mi, 80km
Updated: 9:56pm
Overcast
Overcast
 Wind from varies
Wind: varies 5 mph , 7 km/h
Temperature: 36°F , 2°C
Wind Chill: 32°F , 0°C
Dew Point: 21°F , -6°C
Humidity: 56%
Barometer: 30.01 inHg , 1016.3 hPa
Clouds: Overcast
Visibility: 10 miles , 16 km
Cloud details: Overcast 4500 ft
2018/10/22 01:56 KLCI 220156Z AUTO VRB04KT 10SM OVC045 02/M06 A3001 RMK AO2 SLP181 T00171056 FZRANO $
KDDH - Bennington, Vermont, USA
Distance from station: SW 55mi, 89km
Updated: 9:54pm
Overcast
Overcast
 Wind from WNW
Wind: WNW 3 mph , 6 km/h
Temperature: 36°F , 2°C
Dew Point: 19°F , -7°C
Humidity: 52%
Barometer: 30.07 inHg , 1018.3 hPa
Clouds: Overcast
Visibility: 10 miles , 16 km
Cloud details: Overcast 5000 ft
2018/10/22 01:54 KDDH 220154Z AUTO 30003KT 10SM OVC050 02/M07 A3007 RMK AO2 SLP187 T00221067
 
K6B0 - Middlebury, Vermont, USA
Distance from station: NW 56mi, 90km
Updated: 9:55pm
Overcast
Overcast
 Wind from N
Wind: N 3 mph , 6 km/h
Temperature: 32°F , 0°C
Dew Point: 21°F , -6°C
Humidity: 64%
Barometer: 30.07 inHg , 1018.3 hPa
Clouds: Overcast
Visibility: 10 miles , 16 km
Cloud details: Overcast 6000 ft
2018/10/22 01:55 K6B0 220155Z AUTO 35003KT 10SM OVC060 00/M06 A3007 RMK AO2 T00011065
KMHT - Manchester, New Hampshire, USA
Distance from station: ESE 56mi, 90km
Updated: 9:53pm
Partly cloudy
Partly cloudy
 Wind from NW
Wind: NW 12 mph , 19 km/h, Gust: 17 mph , 28 km/h
Temperature: 37°F , 3°C
Wind Chill: 29°F , -2°C
Dew Point: 18°F , -8°C
Humidity: 45%
Barometer: 30.03 inHg , 1016.9 hPa
Clouds: Partly cloudy
Visibility: 10 miles , 16 km
Cloud details: Partly cloudy 5000 ft
2018/10/22 01:53 KMHT 220153Z 32010G15KT 10SM SCT050 03/M08 A3003 RMK AO2 SLP184 T00281078
KORE - Orange, Massachusetts, USA
Distance from station: S 56mi, 90km
Updated: 9:52pm
Clear
Clear
 Wind from WNW
Wind: WNW 6 mph , 9 km/h
Temperature: 28°F , -2°C
Wind Chill: 21°F , -6°C
Dew Point: 21°F , -6°C
Humidity: 74%
Barometer: 30.07 inHg , 1018.3 hPa
Clouds: Clear
Visibility: 10 miles , 16 km
2018/10/22 01:52 KORE 220152Z AUTO 29005KT 10SM CLR M02/M06 A3007 RMK AO2 SLP188 T10221061
 
KMPV - Montpelier/Barre, Vermont, USA
Distance from station: N 58mi, 93km
Updated: 9:51pm
Overcast
Overcast
 Wind from NW
Wind: NW 6 mph , 9 km/h, Gust: 17 mph , 28 km/h
Temperature: 30°F , -1°C
Wind Chill: 24°F , -4°C
Dew Point: 19°F , -7°C
Humidity: 64%
Barometer: 30.04 inHg , 1017.3 hPa
Clouds: Overcast
Visibility: 10 miles , 16 km
Cloud details: Overcast 5000 ft
2018/10/22 01:51 KMPV 220151Z AUTO 31005G15KT 10SM OVC050 M01/M07 A3004 RMK AO2 SLP188 T10061067
KASH - Nashua/Boire Fld, New Hampshire, USA
Distance from station: SE 59mi, 95km
Updated: 9:56pm
Overcast
Overcast
 Wind from calm
Wind: Calm
Temperature: 32°F , 0°C
Dew Point: 25°F , -4°C
Humidity: 75%
Barometer: 30.05 inHg , 1017.6 hPa
Clouds: Overcast
Visibility: 10 miles , 16 km
Cloud details: Overcast 5000 ft
2018/10/22 01:56 KASH 220156Z AUTO 00000KT 10SM OVC050 00/M04 A3005 RMK AO2 SLP189 T00001044
KAQW - North Adams, Massachusetts, USA
Distance from station: SW 62mi, 99km
Updated: 9:52pm
Overcast
Overcast
 Wind from W
Wind: W 13 mph , 20 km/h, Gust: 24 mph , 39 km/h
Temperature: 37°F , 3°C
Wind Chill: 29°F , -2°C
Dew Point: 19°F , -7°C
Humidity: 48%
Barometer: 30.07 inHg , 1018.3 hPa
Clouds: Overcast
Visibility: 10 miles , 16 km
Cloud details: Overcast 5500 ft
2018/10/22 01:52 KAQW 220152Z AUTO 27011G21KT 10SM OVC055 03/M07 A3007 RMK AO2 SLP189 T00281072
 
KGFL - Glens Falls, New York, USA
Distance from station: W 63mi, 101km
Updated: 9:53pm
Overcast
Overcast
 Wind from calm
Wind: Calm
Temperature: 32°F , 0°C
Dew Point: 27°F , -3°C
Humidity: 80%
Barometer: 30.08 inHg , 1018.6 hPa
Clouds: Overcast
Visibility: 10 miles , 16 km
Cloud details: Overcast 6000 ft
2018/10/22 01:53 KGFL 220153Z AUTO 00000KT 10SM OVC060 00/M03 A3008 RMK AO2 SLP193 T00001033
KFIT - Fitchburg, Massachusetts, USA
Distance from station: SSE 65mi, 105km
Updated: 9:52pm
Clear
Clear
 Wind from WNW
Wind: WNW 7 mph , 11 km/h
Temperature: 28°F , -2°C
Wind Chill: 21°F , -6°C
Dew Point: 21°F , -6°C
Humidity: 74%
Barometer: 30.06 inHg , 1017.9 hPa
Clouds: Clear
Visibility: 10 miles , 16 km
2018/10/22 01:52 KFIT 220152Z AUTO 29006KT 10SM CLR M02/M06 A3006 RMK AO2 SLP182 T10171061
KDAW - Rochester, New Hampshire, USA
Distance from station: E 73mi, 118km
Updated: 9:51pm
Overcast
Overcast
 Wind from WNW
Wind: WNW 9 mph , 15 km/h, Gust: 18 mph , 30 km/h
Temperature: 37°F , 3°C
Wind Chill: 30°F , -1°C
Dew Point: 21°F , -6°C
Humidity: 52%
Barometer: 29.99 inHg , 1015.6 hPa
Clouds: Overcast
Visibility: 10 miles , 16 km
Cloud details: Overcast 4800 ft
2018/10/22 01:51 KDAW 220151Z AUTO 30008G16KT 10SM OVC048 03/M06 A2999 RMK AO2 SLP156 T00281056
 
K1V4 - St. Johnsbury, Vermont, USA
Distance from station: NNE 74mi, 119km
Updated: 9:54pm

 
Temperature: 34°F , 1°C
Dew Point: 23°F , -5°C
Humidity: 65%
Barometer: 29.99 inHg , 1015.6 hPa
2018/10/22 01:54 K1V4 220154Z AUTO 01/M05 A2999 RMK AO1 SLP163 T00111050
KLWM - Lawrence, Massachusetts, USA
Distance from station: SE 77mi, 124km
Updated: 9:54pm
Clear
Clear
 Wind from WNW
Wind: WNW 9 mph , 15 km/h
Temperature: 39°F , 4°C
Wind Chill: 33°F , 1°C
Dew Point: 19°F , -7°C
Humidity: 45%
Barometer: 30.05 inHg , 1017.6 hPa
Clouds: Clear
Visibility: 10 miles , 16 km
2018/10/22 01:54 KLWM 220154Z 30008KT 10SM CLR 04/M07 A3005 RMK AO2 SLP177 T00391072

free counter page views since 4/29/2009